Baker Lake, Canada
Current Conditions -  °F | °C
As of 2:00 PM on Thursday 27 Nov 2014 (Local Time) from CYBK Reporting Station
Blowing Snow Blowing Snow  
Wind Chill: -48°   Ceiling: Unl
Heat Index: -22°   Visibility: 15mi
Dew Point: -29°   Wind: 15mph
Humidity: 69%   Direction: 310°NW
Pressure: 29.88"   Gusts: NA
Location:  64.32°N, 96.02°W
Report Text: CYBK 272000Z 31013KT 15SM IC DRSN FEW030 M30/M34 A2988 RMK SC1 SLP120
Loading
Personal Weather Stations






























Interactive Weather Map New forecast layout! Learn more

10-Day Weather Forecast

Advertisements
Track Severe Weather on mobile